Aeroporto :
LOGIN :

Iscrizione | Disclaimer

   EN    FR    IT 

 










Sommario :    VFR   VFR Marginale   IFR   IFR Intensivo   IFR Molto Intensivo
Visibilità : 
Base nubi : 
>= 8 km
>= 3000ft
5 / 8 km
1000 / 3000 ft
1500m / 5 km
500 / 1000 ft
800 / 1500m
200 / 500 ft
< 800m
< 200 ft
Simboli :   Temporali  Nebbia  Neve Forte  Precipitazioni Forti  Vento > 20 kt
SIGMETs :   Varie  Temporali  Ghiacco  Turbolenza  Onda orograficha  Ceneri Vulcaniche







- Altitudine del aeroporto : 2356 ft


LZTT - Poprad Tatry

ULTIMO METAR :
  • 230730Z VRB01KT 9999 FEW046 BKN100 09/06 Q1016 NOSIG

METARs OBSOLETI :
  • 230700Z VRB01KT 9999 FEW046 BKN100 08/06 Q1016 NOSIG
  • 230630Z VRB01KT 9999 FEW050 BKN090 07/06 Q1016 NOSIG
  • 230600Z VRB01KT 9999 FEW050 BKN080 07/05 Q1016 NOSIG
  • 230530Z 00000KT 9999 FEW046 BKN080 06/05 Q1016 NOSIG
  • 230500Z VRB01KT 9999 FEW046 BKN080 05/04 Q1016 NOSIG

TAF TAF LZTT
Valido dal 23 a 06 ore il 24 a 06 ore UTC


230500Z 2306/2406 30004KT 9999 SCT050 BKN070
TEMPO 2306/2318 -RA SCT034 OVC060
BECMG 2308/2310 11008KT
PROB30
TEMPO 2308/2312 5000 RA OVC030
BECMG 2319/2321 27003KT BKN012
PROB40
TEMPO 2322/2403 2000 BCFG BR BKN002
BECMG 2403/2405 SCT015
Nessun NOTAM noto per questo aeroporto.



MetMap, La meteo Aeronautica in un colpo d'occhio ! - Copyright ORBIFLY Dicembre 2007 - Disclaimer

ORBIFLY MET'MAP TEAM :

Programmazione e sviluppo : Alexandra Zaïnal
Concezione e sviluppo : Baudouin d'Aumeries
Co-Programmazione e sviluppo : Marc-Olivier Méhu
Supporto tecnico e logistico : Manuel Goepfert
Aiuto per la traduzione : Arnaldo La Scala

Contatto : metmap@orbifly.com




FONTI E CREDITI :

   NOAA